sensor_id;sensor_type;location;lat;lon;timestamp;temperature;humidity
34768;DHT22;21755;43.608;1.236;2024-01-11T00:00:35;4.10;99.90
34768;DHT22;21755;43.608;1.236;2024-01-11T00:03:01;4.10;99.90
34768;DHT22;21755;43.608;1.236;2024-01-11T00:05:27;4.10;99.90
34768;DHT22;21755;43.608;1.236;2024-01-11T00:07:53;4.20;99.90
34768;DHT22;21755;43.608;1.236;2024-01-11T00:10:20;4.10;99.90
34768;DHT22;21755;43.608;1.236;2024-01-11T00:12:46;4.10;99.90
34768;DHT22;21755;43.608;1.236;2024-01-11T00:15:12;4.10;99.90
34768;DHT22;21755;43.608;1.236;2024-01-11T00:17:38;4.10;99.90
34768;DHT22;21755;43.608;1.236;2024-01-11T00:20:05;4.10;99.90
34768;DHT22;21755;43.608;1.236;2024-01-11T00:22:32;4.10;99.90
34768;DHT22;21755;43.608;1.236;2024-01-11T00:24:58;4.10;99.90
34768;DHT22;21755;43.608;1.236;2024-01-11T00:27:24;4.10;99.90
34768;DHT22;21755;43.608;1.236;2024-01-11T00:29:50;4.10;99.90
34768;DHT22;21755;43.608;1.236;2024-01-11T00:32:15;4.10;99.90
34768;DHT22;21755;43.608;1.236;2024-01-11T00:34:41;4.10;99.90
34768;DHT22;21755;43.608;1.236;2024-01-11T00:37:07;4.10;99.90
34768;DHT22;21755;43.608;1.236;2024-01-11T00:39:36;4.10;99.90
34768;DHT22;21755;43.608;1.236;2024-01-11T00:42:02;4.10;99.90
34768;DHT22;21755;43.608;1.236;2024-01-11T00:44:28;4.10;99.90
34768;DHT22;21755;43.608;1.236;2024-01-11T00:46:54;4.10;99.90
34768;DHT22;21755;43.608;1.236;2024-01-11T00:49:20;4.10;99.90
34768;DHT22;21755;43.608;1.236;2024-01-11T00:51:46;4.10;99.90
34768;DHT22;21755;43.608;1.236;2024-01-11T00:54:14;4.00;99.90
34768;DHT22;21755;43.608;1.236;2024-01-11T00:56:40;4.10;99.90
34768;DHT22;21755;43.608;1.236;2024-01-11T00:59:06;4.00;99.90
34768;DHT22;21755;43.608;1.236;2024-01-11T01:01:32;4.10;99.90
34768;DHT22;21755;43.608;1.236;2024-01-11T01:03:58;4.00;99.90
34768;DHT22;21755;43.608;1.236;2024-01-11T01:06:24;4.10;99.90
34768;DHT22;21755;43.608;1.236;2024-01-11T01:08:50;4.00;99.90
34768;DHT22;21755;43.608;1.236;2024-01-11T01:11:17;4.00;99.90
34768;DHT22;21755;43.608;1.236;2024-01-11T01:13:42;4.00;99.90
34768;DHT22;21755;43.608;1.236;2024-01-11T01:16:08;4.00;99.90
34768;DHT22;21755;43.608;1.236;2024-01-11T01:18:34;4.00;99.90
34768;DHT22;21755;43.608;1.236;2024-01-11T01:21:00;4.00;99.90
34768;DHT22;21755;43.608;1.236;2024-01-11T01:23:26;4.00;99.90
34768;DHT22;21755;43.608;1.236;2024-01-11T01:25:52;4.00;99.90
34768;DHT22;21755;43.608;1.236;2024-01-11T01:28:18;4.00;99.90
34768;DHT22;21755;43.608;1.236;2024-01-11T01:30:44;4.00;99.90
34768;DHT22;21755;43.608;1.236;2024-01-11T01:33:09;4.00;99.90
34768;DHT22;21755;43.608;1.236;2024-01-11T01:35:35;4.00;99.90
34768;DHT22;21755;43.608;1.236;2024-01-11T01:38:02;4.10;99.90
34768;DHT22;21755;43.608;1.236;2024-01-11T01:40:30;4.00;99.90
34768;DHT22;21755;43.608;1.236;2024-01-11T01:43:00;4.00;99.90
34768;DHT22;21755;43.608;1.236;2024-01-11T01:45:26;4.00;99.90
34768;DHT22;21755;43.608;1.236;2024-01-11T01:47:53;4.00;99.90
34768;DHT22;21755;43.608;1.236;2024-01-11T01:50:21;4.00;99.90
34768;DHT22;21755;43.608;1.236;2024-01-11T01:52:47;4.00;99.90
34768;DHT22;21755;43.608;1.236;2024-01-11T01:55:15;4.00;99.90
34768;DHT22;21755;43.608;1.236;2024-01-11T01:57:42;4.10;99.90
34768;DHT22;21755;43.608;1.236;2024-01-11T02:00:10;4.00;99.90
34768;DHT22;21755;43.608;1.236;2024-01-11T02:02:39;4.00;99.90
34768;DHT22;21755;43.608;1.236;2024-01-11T02:05:06;4.00;99.90
34768;DHT22;21755;43.608;1.236;2024-01-11T02:07:32;4.00;99.90
34768;DHT22;21755;43.608;1.236;2024-01-11T02:09:58;4.00;99.90
34768;DHT22;21755;43.608;1.236;2024-01-11T02:12:25;4.00;99.90
34768;DHT22;21755;43.608;1.236;2024-01-11T02:14:53;4.00;99.90
34768;DHT22;21755;43.608;1.236;2024-01-11T02:17:19;4.00;99.90
34768;DHT22;21755;43.608;1.236;2024-01-11T02:19:46;4.00;99.90
34768;DHT22;21755;43.608;1.236;2024-01-11T02:22:19;4.00;99.90
34768;DHT22;21755;43.608;1.236;2024-01-11T02:24:48;4.00;99.90
34768;DHT22;21755;43.608;1.236;2024-01-11T02:27:14;4.00;99.90
34768;DHT22;21755;43.608;1.236;2024-01-11T02:29:40;4.00;99.90
34768;DHT22;21755;43.608;1.236;2024-01-11T02:32:06;4.00;99.90
34768;DHT22;21755;43.608;1.236;2024-01-11T02:34:33;4.00;99.90
34768;DHT22;21755;43.608;1.236;2024-01-11T02:36:59;4.00;99.90
34768;DHT22;21755;43.608;1.236;2024-01-11T02:39:26;4.00;99.90
34768;DHT22;21755;43.608;1.236;2024-01-11T02:41:56;4.00;99.90
34768;DHT22;21755;43.608;1.236;2024-01-11T02:44:23;4.00;99.90
34768;DHT22;21755;43.608;1.236;2024-01-11T02:46:49;4.00;99.90
34768;DHT22;21755;43.608;1.236;2024-01-11T02:49:16;4.00;99.90
34768;DHT22;21755;43.608;1.236;2024-01-11T02:51:42;4.00;99.90
34768;DHT22;21755;43.608;1.236;2024-01-11T02:54:08;4.00;99.90
34768;DHT22;21755;43.608;1.236;2024-01-11T02:56:35;4.00;99.90
34768;DHT22;21755;43.608;1.236;2024-01-11T02:59:01;4.00;99.90
34768;DHT22;21755;43.608;1.236;2024-01-11T03:01:27;4.00;99.90
34768;DHT22;21755;43.608;1.236;2024-01-11T03:03:52;4.00;99.90
34768;DHT22;21755;43.608;1.236;2024-01-11T03:06:19;4.00;99.90
34768;DHT22;21755;43.608;1.236;2024-01-11T03:08:50;4.00;99.90
34768;DHT22;21755;43.608;1.236;2024-01-11T03:11:16;4.00;99.90
34768;DHT22;21755;43.608;1.236;2024-01-11T03:13:44;4.00;99.90
34768;DHT22;21755;43.608;1.236;2024-01-11T03:16:10;4.00;99.90
34768;DHT22;21755;43.608;1.236;2024-01-11T03:18:36;4.00;99.90
34768;DHT22;21755;43.608;1.236;2024-01-11T03:21:02;4.00;99.90
34768;DHT22;21755;43.608;1.236;2024-01-11T03:23:28;4.00;99.90
34768;DHT22;21755;43.608;1.236;2024-01-11T03:25:54;4.00;99.90
34768;DHT22;21755;43.608;1.236;2024-01-11T03:28:20;4.00;99.90
34768;DHT22;21755;43.608;1.236;2024-01-11T03:30:45;4.00;99.90
34768;DHT22;21755;43.608;1.236;2024-01-11T03:33:11;4.00;99.90
34768;DHT22;21755;43.608;1.236;2024-01-11T03:35:37;4.00;99.90
34768;DHT22;21755;43.608;1.236;2024-01-11T03:38:06;4.00;99.90
34768;DHT22;21755;43.608;1.236;2024-01-11T03:58:48;4.00;99.90
34768;DHT22;21755;43.608;1.236;2024-01-11T04:02:04;4.00;99.90
34768;DHT22;21755;43.608;1.236;2024-01-11T05:12:21;3.90;99.90
34768;DHT22;21755;43.608;1.236;2024-01-11T05:14:47;3.90;99.90
34768;DHT22;21755;43.608;1.236;2024-01-11T05:17:13;3.90;99.90
34768;DHT22;21755;43.608;1.236;2024-01-11T05:19:39;3.90;99.90
34768;DHT22;21755;43.608;1.236;2024-01-11T05:22:05;3.90;99.90
34768;DHT22;21755;43.608;1.236;2024-01-11T05:24:31;3.90;99.90
34768;DHT22;21755;43.608;1.236;2024-01-11T05:26:57;3.90;99.90
34768;DHT22;21755;43.608;1.236;2024-01-11T05:29:23;3.90;99.90
34768;DHT22;21755;43.608;1.236;2024-01-11T05:31:49;3.90;99.90
34768;DHT22;21755;43.608;1.236;2024-01-11T05:34:15;3.90;99.90
34768;DHT22;21755;43.608;1.236;2024-01-11T05:36:41;3.90;99.90
34768;DHT22;21755;43.608;1.236;2024-01-11T05:39:07;3.90;99.90
34768;DHT22;21755;43.608;1.236;2024-01-11T05:41:33;3.90;99.90
34768;DHT22;21755;43.608;1.236;2024-01-11T05:43:59;3.90;99.90
34768;DHT22;21755;43.608;1.236;2024-01-11T05:46:24;3.90;99.90
34768;DHT22;21755;43.608;1.236;2024-01-11T05:48:50;3.90;99.90
34768;DHT22;21755;43.608;1.236;2024-01-11T05:51:16;3.90;99.90
34768;DHT22;21755;43.608;1.236;2024-01-11T05:53:42;3.90;99.90
34768;DHT22;21755;43.608;1.236;2024-01-11T05:56:09;3.90;99.90
34768;DHT22;21755;43.608;1.236;2024-01-11T05:58:35;3.80;99.90
34768;DHT22;21755;43.608;1.236;2024-01-11T06:01:03;3.90;99.90
34768;DHT22;21755;43.608;1.236;2024-01-11T06:03:29;3.80;99.90
34768;DHT22;21755;43.608;1.236;2024-01-11T06:05:55;3.80;99.90
34768;DHT22;21755;43.608;1.236;2024-01-11T06:08:21;3.80;99.90
34768;DHT22;21755;43.608;1.236;2024-01-11T06:10:47;3.90;99.90
34768;DHT22;21755;43.608;1.236;2024-01-11T06:13:13;3.90;99.90
34768;DHT22;21755;43.608;1.236;2024-01-11T06:15:39;3.80;99.90
34768;DHT22;21755;43.608;1.236;2024-01-11T06:18:05;3.80;99.90
34768;DHT22;21755;43.608;1.236;2024-01-11T06:20:31;3.80;99.90
34768;DHT22;21755;43.608;1.236;2024-01-11T06:22:56;3.80;99.90
34768;DHT22;21755;43.608;1.236;2024-01-11T06:25:22;3.80;99.90
34768;DHT22;21755;43.608;1.236;2024-01-11T06:27:48;3.80;99.90
34768;DHT22;21755;43.608;1.236;2024-01-11T06:30:14;3.80;99.90
34768;DHT22;21755;43.608;1.236;2024-01-11T06:32:40;3.80;99.90
34768;DHT22;21755;43.608;1.236;2024-01-11T06:35:06;3.80;99.90
34768;DHT22;21755;43.608;1.236;2024-01-11T06:37:32;3.80;99.90
34768;DHT22;21755;43.608;1.236;2024-01-11T08:17:52;3.80;99.90
34768;DHT22;21755;43.608;1.236;2024-01-11T09:28:53;3.90;99.90
34768;DHT22;21755;43.608;1.236;2024-01-11T11:24:34;4.60;99.90
34768;DHT22;21755;43.608;1.236;2024-01-11T11:38:21;4.80;99.90
34768;DHT22;21755;43.608;1.236;2024-01-11T11:40:48;4.70;99.90
34768;DHT22;21755;43.608;1.236;2024-01-11T11:43:18;4.80;99.90
34768;DHT22;21755;43.608;1.236;2024-01-11T11:45:46;4.80;99.90
34768;DHT22;21755;43.608;1.236;2024-01-11T11:53:34;4.80;99.90
34768;DHT22;21755;43.608;1.236;2024-01-11T11:56:01;4.90;99.90
34768;DHT22;21755;43.608;1.236;2024-01-11T11:58:31;4.90;99.90
34768;DHT22;21755;43.608;1.236;2024-01-11T12:00:59;4.90;99.90
34768;DHT22;21755;43.608;1.236;2024-01-11T12:03:29;4.90;99.90
34768;DHT22;21755;43.608;1.236;2024-01-11T12:05:56;4.90;99.90
34768;DHT22;21755;43.608;1.236;2024-01-11T12:08:22;5.00;99.90
34768;DHT22;21755;43.608;1.236;2024-01-11T12:10:48;5.00;99.90
34768;DHT22;21755;43.608;1.236;2024-01-11T12:13:14;5.00;99.90
34768;DHT22;21755;43.608;1.236;2024-01-11T12:15:41;5.00;99.90
34768;DHT22;21755;43.608;1.236;2024-01-11T12:18:07;5.00;99.90
34768;DHT22;21755;43.608;1.236;2024-01-11T12:20:33;5.10;99.90
34768;DHT22;21755;43.608;1.236;2024-01-11T12:22:59;5.10;99.90
34768;DHT22;21755;43.608;1.236;2024-01-11T12:25:25;5.10;99.90
34768;DHT22;21755;43.608;1.236;2024-01-11T12:27:52;5.10;99.90
34768;DHT22;21755;43.608;1.236;2024-01-11T12:30:18;5.10;99.90
34768;DHT22;21755;43.608;1.236;2024-01-11T12:32:44;5.10;99.90
34768;DHT22;21755;43.608;1.236;2024-01-11T12:35:10;5.10;99.90
34768;DHT22;21755;43.608;1.236;2024-01-11T12:37:36;5.20;99.90
34768;DHT22;21755;43.608;1.236;2024-01-11T12:40:02;5.20;99.90
34768;DHT22;21755;43.608;1.236;2024-01-11T12:42:29;5.20;99.90
34768;DHT22;21755;43.608;1.236;2024-01-11T12:44:55;5.20;99.90
34768;DHT22;21755;43.608;1.236;2024-01-11T12:47:21;5.30;99.90
34768;DHT22;21755;43.608;1.236;2024-01-11T12:49:48;5.30;99.90
34768;DHT22;21755;43.608;1.236;2024-01-11T12:52:18;5.30;99.90
34768;DHT22;21755;43.608;1.236;2024-01-11T12:54:44;5.30;99.90
34768;DHT22;21755;43.608;1.236;2024-01-11T12:57:20;5.40;99.90
34768;DHT22;21755;43.608;1.236;2024-01-11T12:59:47;5.40;99.90
34768;DHT22;21755;43.608;1.236;2024-01-11T13:02:14;5.40;99.90
34768;DHT22;21755;43.608;1.236;2024-01-11T13:04:43;5.50;99.90
34768;DHT22;21755;43.608;1.236;2024-01-11T13:07:12;5.50;99.90
34768;DHT22;21755;43.608;1.236;2024-01-11T13:09:38;5.50;99.90
34768;DHT22;21755;43.608;1.236;2024-01-11T13:12:05;5.50;99.90
34768;DHT22;21755;43.608;1.236;2024-01-11T13:14:31;5.50;99.90
34768;DHT22;21755;43.608;1.236;2024-01-11T13:16:57;5.50;99.90
34768;DHT22;21755;43.608;1.236;2024-01-11T13:19:23;5.60;99.90
34768;DHT22;21755;43.608;1.236;2024-01-11T13:21:49;5.60;99.90
34768;DHT22;21755;43.608;1.236;2024-01-11T13:24:15;5.60;99.90
34768;DHT22;21755;43.608;1.236;2024-01-11T13:26:41;5.70;99.90
34768;DHT22;21755;43.608;1.236;2024-01-11T13:29:07;5.70;99.90
34768;DHT22;21755;43.608;1.236;2024-01-11T13:31:33;5.70;99.90
34768;DHT22;21755;43.608;1.236;2024-01-11T13:33:59;5.70;99.90
34768;DHT22;21755;43.608;1.236;2024-01-11T13:36:25;5.70;99.90
34768;DHT22;21755;43.608;1.236;2024-01-11T13:38:53;5.80;99.90
34768;DHT22;21755;43.608;1.236;2024-01-11T13:41:19;5.80;99.90
34768;DHT22;21755;43.608;1.236;2024-01-11T13:43:45;5.80;99.90
34768;DHT22;21755;43.608;1.236;2024-01-11T13:46:11;5.80;99.90
34768;DHT22;21755;43.608;1.236;2024-01-11T13:48:40;5.90;99.90
34768;DHT22;21755;43.608;1.236;2024-01-11T13:51:06;5.90;99.90
34768;DHT22;21755;43.608;1.236;2024-01-11T13:53:34;5.90;99.90
34768;DHT22;21755;43.608;1.236;2024-01-11T13:56:00;5.90;99.90
34768;DHT22;21755;43.608;1.236;2024-01-11T13:58:26;5.90;99.90
34768;DHT22;21755;43.608;1.236;2024-01-11T14:00:52;5.90;99.90
34768;DHT22;21755;43.608;1.236;2024-01-11T14:03:18;5.90;99.90
34768;DHT22;21755;43.608;1.236;2024-01-11T14:05:44;5.90;99.90
34768;DHT22;21755;43.608;1.236;2024-01-11T14:08:10;6.00;99.90
34768;DHT22;21755;43.608;1.236;2024-01-11T14:10:36;6.00;99.90
34768;DHT22;21755;43.608;1.236;2024-01-11T14:13:03;5.90;99.90
34768;DHT22;21755;43.608;1.236;2024-01-11T14:15:29;6.00;99.90
34768;DHT22;21755;43.608;1.236;2024-01-11T14:17:56;6.00;99.90
34768;DHT22;21755;43.608;1.236;2024-01-11T14:20:22;6.00;99.90
34768;DHT22;21755;43.608;1.236;2024-01-11T14:22:49;6.00;99.90
34768;DHT22;21755;43.608;1.236;2024-01-11T14:25:16;6.00;99.90
34768;DHT22;21755;43.608;1.236;2024-01-11T14:27:42;6.00;99.90
34768;DHT22;21755;43.608;1.236;2024-01-11T14:30:10;6.00;99.90
34768;DHT22;21755;43.608;1.236;2024-01-11T14:32:37;6.10;99.90
34768;DHT22;21755;43.608;1.236;2024-01-11T14:35:03;6.00;99.90
34768;DHT22;21755;43.608;1.236;2024-01-11T14:37:32;6.10;99.90
34768;DHT22;21755;43.608;1.236;2024-01-11T14:39:58;6.00;99.90
34768;DHT22;21755;43.608;1.236;2024-01-11T14:42:25;6.10;99.90
34768;DHT22;21755;43.608;1.236;2024-01-11T14:44:51;6.10;99.90
34768;DHT22;21755;43.608;1.236;2024-01-11T14:47:16;6.10;99.90
34768;DHT22;21755;43.608;1.236;2024-01-11T14:49:42;6.10;99.90
34768;DHT22;21755;43.608;1.236;2024-01-11T14:52:09;6.10;99.90
34768;DHT22;21755;43.608;1.236;2024-01-11T14:54:34;6.10;99.90
34768;DHT22;21755;43.608;1.236;2024-01-11T14:57:01;6.10;99.90
34768;DHT22;21755;43.608;1.236;2024-01-11T14:59:26;6.10;99.90
34768;DHT22;21755;43.608;1.236;2024-01-11T15:01:52;6.10;99.90
34768;DHT22;21755;43.608;1.236;2024-01-11T15:04:18;6.10;99.90
34768;DHT22;21755;43.608;1.236;2024-01-11T15:06:44;6.10;99.90
34768;DHT22;21755;43.608;1.236;2024-01-11T15:09:10;6.10;99.90
34768;DHT22;21755;43.608;1.236;2024-01-11T15:11:41;6.10;99.90
34768;DHT22;21755;43.608;1.236;2024-01-11T15:14:08;6.10;99.90
34768;DHT22;21755;43.608;1.236;2024-01-11T15:16:38;6.10;99.90
34768;DHT22;21755;43.608;1.236;2024-01-11T15:19:04;6.10;99.90
34768;DHT22;21755;43.608;1.236;2024-01-11T15:21:30;6.10;99.90
34768;DHT22;21755;43.608;1.236;2024-01-11T15:23:57;6.20;99.90
34768;DHT22;21755;43.608;1.236;2024-01-11T15:26:26;6.20;99.90
34768;DHT22;21755;43.608;1.236;2024-01-11T15:28:53;6.20;99.90
34768;DHT22;21755;43.608;1.236;2024-01-11T15:31:18;6.20;99.90
34768;DHT22;21755;43.608;1.236;2024-01-11T15:33:44;6.10;99.90
34768;DHT22;21755;43.608;1.236;2024-01-11T15:36:11;6.20;99.90
34768;DHT22;21755;43.608;1.236;2024-01-11T15:38:38;6.20;99.90
34768;DHT22;21755;43.608;1.236;2024-01-11T15:41:04;6.20;99.90
34768;DHT22;21755;43.608;1.236;2024-01-11T15:43:33;6.20;99.90
34768;DHT22;21755;43.608;1.236;2024-01-11T15:45:59;6.20;99.90
34768;DHT22;21755;43.608;1.236;2024-01-11T15:48:25;6.20;99.90
34768;DHT22;21755;43.608;1.236;2024-01-11T15:50:52;6.20;99.90
34768;DHT22;21755;43.608;1.236;2024-01-11T15:53:21;6.20;99.90
34768;DHT22;21755;43.608;1.236;2024-01-11T15:55:47;6.20;99.90
34768;DHT22;21755;43.608;1.236;2024-01-11T15:58:14;6.20;99.90
34768;DHT22;21755;43.608;1.236;2024-01-11T16:00:40;6.20;99.90
34768;DHT22;21755;43.608;1.236;2024-01-11T16:03:09;6.20;99.90
34768;DHT22;21755;43.608;1.236;2024-01-11T16:05:35;6.20;99.90
34768;DHT22;21755;43.608;1.236;2024-01-11T16:08:01;6.20;99.90
34768;DHT22;21755;43.608;1.236;2024-01-11T16:10:27;6.10;99.90
34768;DHT22;21755;43.608;1.236;2024-01-11T16:12:53;6.20;99.90
34768;DHT22;21755;43.608;1.236;2024-01-11T16:15:20;6.20;99.90
34768;DHT22;21755;43.608;1.236;2024-01-11T16:17:46;6.10;99.90
34768;DHT22;21755;43.608;1.236;2024-01-11T16:20:12;6.10;99.90
34768;DHT22;21755;43.608;1.236;2024-01-11T16:22:38;6.10;99.90
34768;DHT22;21755;43.608;1.236;2024-01-11T16:25:04;6.10;99.90
34768;DHT22;21755;43.608;1.236;2024-01-11T16:27:30;6.20;99.90
34768;DHT22;21755;43.608;1.236;2024-01-11T16:29:56;6.10;99.90
34768;DHT22;21755;43.608;1.236;2024-01-11T16:32:22;6.10;99.90
34768;DHT22;21755;43.608;1.236;2024-01-11T16:34:48;6.10;99.90
34768;DHT22;21755;43.608;1.236;2024-01-11T16:37:14;6.10;99.90
34768;DHT22;21755;43.608;1.236;2024-01-11T16:39:43;6.10;99.90
34768;DHT22;21755;43.608;1.236;2024-01-11T16:42:09;6.10;99.90
34768;DHT22;21755;43.608;1.236;2024-01-11T16:44:38;6.10;99.90
34768;DHT22;21755;43.608;1.236;2024-01-11T16:47:04;6.10;99.90
34768;DHT22;21755;43.608;1.236;2024-01-11T16:49:30;6.00;99.90
34768;DHT22;21755;43.608;1.236;2024-01-11T16:51:55;6.00;99.90
34768;DHT22;21755;43.608;1.236;2024-01-11T16:54:21;6.00;99.90
34768;DHT22;21755;43.608;1.236;2024-01-11T16:56:48;6.00;99.90
34768;DHT22;21755;43.608;1.236;2024-01-11T16:59:14;6.00;99.90
34768;DHT22;21755;43.608;1.236;2024-01-11T17:01:41;6.00;99.90
34768;DHT22;21755;43.608;1.236;2024-01-11T17:04:08;6.00;99.90
34768;DHT22;21755;43.608;1.236;2024-01-11T17:06:34;5.90;99.90
34768;DHT22;21755;43.608;1.236;2024-01-11T17:09:01;5.90;99.90
34768;DHT22;21755;43.608;1.236;2024-01-11T17:11:27;5.90;99.90
34768;DHT22;21755;43.608;1.236;2024-01-11T17:13:53;5.90;99.90
34768;DHT22;21755;43.608;1.236;2024-01-11T17:16:20;5.90;99.90
34768;DHT22;21755;43.608;1.236;2024-01-11T17:18:46;5.80;99.90
34768;DHT22;21755;43.608;1.236;2024-01-11T17:21:14;5.80;99.90
34768;DHT22;21755;43.608;1.236;2024-01-11T17:23:40;5.80;99.90
34768;DHT22;21755;43.608;1.236;2024-01-11T17:26:06;5.80;99.90
34768;DHT22;21755;43.608;1.236;2024-01-11T17:28:33;5.70;99.90
34768;DHT22;21755;43.608;1.236;2024-01-11T17:30:59;5.70;99.90
34768;DHT22;21755;43.608;1.236;2024-01-11T17:33:25;5.70;99.90
34768;DHT22;21755;43.608;1.236;2024-01-11T17:35:52;5.70;99.90
34768;DHT22;21755;43.608;1.236;2024-01-11T17:38:17;5.70;99.90
34768;DHT22;21755;43.608;1.236;2024-01-11T17:40:44;5.70;99.90
34768;DHT22;21755;43.608;1.236;2024-01-11T17:43:10;5.70;99.90
34768;DHT22;21755;43.608;1.236;2024-01-11T17:45:35;5.70;99.90
34768;DHT22;21755;43.608;1.236;2024-01-11T17:48:04;5.70;99.90
34768;DHT22;21755;43.608;1.236;2024-01-11T17:50:30;5.60;99.90
34768;DHT22;21755;43.608;1.236;2024-01-11T17:52:58;5.60;99.90
34768;DHT22;21755;43.608;1.236;2024-01-11T17:55:24;5.60;99.90
34768;DHT22;21755;43.608;1.236;2024-01-11T17:57:50;5.60;99.90
34768;DHT22;21755;43.608;1.236;2024-01-11T18:00:16;5.60;99.90
34768;DHT22;21755;43.608;1.236;2024-01-11T18:02:42;5.60;99.90
34768;DHT22;21755;43.608;1.236;2024-01-11T18:05:08;5.60;99.90
34768;DHT22;21755;43.608;1.236;2024-01-11T18:07:34;5.60;99.90
34768;DHT22;21755;43.608;1.236;2024-01-11T18:10:00;5.60;99.90
34768;DHT22;21755;43.608;1.236;2024-01-11T18:12:29;5.50;99.90
34768;DHT22;21755;43.608;1.236;2024-01-11T18:14:55;5.50;99.90
34768;DHT22;21755;43.608;1.236;2024-01-11T18:17:21;5.50;99.90
34768;DHT22;21755;43.608;1.236;2024-01-11T18:19:50;5.50;99.90
34768;DHT22;21755;43.608;1.236;2024-01-11T18:22:16;5.50;99.90
34768;DHT22;21755;43.608;1.236;2024-01-11T18:24:42;5.50;99.90
34768;DHT22;21755;43.608;1.236;2024-01-11T18:27:11;5.50;99.90
34768;DHT22;21755;43.608;1.236;2024-01-11T18:29:37;5.50;99.90
34768;DHT22;21755;43.608;1.236;2024-01-11T18:32:03;5.50;99.90
34768;DHT22;21755;43.608;1.236;2024-01-11T18:34:32;5.50;99.90
34768;DHT22;21755;43.608;1.236;2024-01-11T18:36:58;5.50;99.90
34768;DHT22;21755;43.608;1.236;2024-01-11T18:39:24;5.50;99.90
34768;DHT22;21755;43.608;1.236;2024-01-11T18:41:54;5.50;99.90
34768;DHT22;21755;43.608;1.236;2024-01-11T18:44:23;5.50;99.90
34768;DHT22;21755;43.608;1.236;2024-01-11T18:46:49;5.50;99.90
34768;DHT22;21755;43.608;1.236;2024-01-11T18:49:15;5.50;99.90
34768;DHT22;21755;43.608;1.236;2024-01-11T18:51:42;5.50;99.90
34768;DHT22;21755;43.608;1.236;2024-01-11T18:54:08;5.50;99.90
34768;DHT22;21755;43.608;1.236;2024-01-11T18:56:35;5.50;99.90
34768;DHT22;21755;43.608;1.236;2024-01-11T18:59:01;5.50;99.90
34768;DHT22;21755;43.608;1.236;2024-01-11T19:01:27;5.50;99.90
34768;DHT22;21755;43.608;1.236;2024-01-11T19:03:54;5.50;99.90
34768;DHT22;21755;43.608;1.236;2024-01-11T19:06:21;5.40;99.90
34768;DHT22;21755;43.608;1.236;2024-01-11T19:08:47;5.40;99.90
34768;DHT22;21755;43.608;1.236;2024-01-11T19:11:13;5.40;99.90
34768;DHT22;21755;43.608;1.236;2024-01-11T19:13:39;5.40;99.90
34768;DHT22;21755;43.608;1.236;2024-01-11T19:16:05;5.40;99.90
34768;DHT22;21755;43.608;1.236;2024-01-11T19:18:32;5.40;99.90
34768;DHT22;21755;43.608;1.236;2024-01-11T19:20:58;5.40;99.90
34768;DHT22;21755;43.608;1.236;2024-01-11T19:23:24;5.40;99.90
34768;DHT22;21755;43.608;1.236;2024-01-11T19:25:57;5.40;99.90
34768;DHT22;21755;43.608;1.236;2024-01-11T19:28:25;5.40;99.90
34768;DHT22;21755;43.608;1.236;2024-01-11T19:30:52;5.40;99.90
34768;DHT22;21755;43.608;1.236;2024-01-11T19:33:18;5.40;99.90
34768;DHT22;21755;43.608;1.236;2024-01-11T19:35:44;5.40;99.90
34768;DHT22;21755;43.608;1.236;2024-01-11T19:38:12;5.40;99.90
34768;DHT22;21755;43.608;1.236;2024-01-11T19:40:39;5.40;99.90
34768;DHT22;21755;43.608;1.236;2024-01-11T19:43:08;5.40;99.90
34768;DHT22;21755;43.608;1.236;2024-01-11T19:45:34;5.40;99.90
34768;DHT22;21755;43.608;1.236;2024-01-11T19:48:01;5.40;99.90
34768;DHT22;21755;43.608;1.236;2024-01-11T19:50:27;5.40;99.90
34768;DHT22;21755;43.608;1.236;2024-01-11T19:52:53;5.30;99.90
34768;DHT22;21755;43.608;1.236;2024-01-11T19:55:19;5.30;99.90
34768;DHT22;21755;43.608;1.236;2024-01-11T19:57:45;5.40;99.90
34768;DHT22;21755;43.608;1.236;2024-01-11T20:00:11;5.40;99.90
34768;DHT22;21755;43.608;1.236;2024-01-11T20:02:37;5.30;99.90
34768;DHT22;21755;43.608;1.236;2024-01-11T20:05:04;5.40;99.90
34768;DHT22;21755;43.608;1.236;2024-01-11T20:07:30;5.30;99.90
34768;DHT22;21755;43.608;1.236;2024-01-11T20:09:56;5.40;99.90
34768;DHT22;21755;43.608;1.236;2024-01-11T20:12:22;5.30;99.90
34768;DHT22;21755;43.608;1.236;2024-01-11T20:14:49;5.30;99.90
34768;DHT22;21755;43.608;1.236;2024-01-11T20:17:15;5.40;99.90
34768;DHT22;21755;43.608;1.236;2024-01-11T20:19:43;5.40;99.90
34768;DHT22;21755;43.608;1.236;2024-01-11T20:22:10;5.30;99.90
34768;DHT22;21755;43.608;1.236;2024-01-11T20:24:38;5.30;99.90
34768;DHT22;21755;43.608;1.236;2024-01-11T20:27:03;5.30;99.90
34768;DHT22;21755;43.608;1.236;2024-01-11T20:29:31;5.30;99.90
34768;DHT22;21755;43.608;1.236;2024-01-11T20:31:57;5.30;99.90
34768;DHT22;21755;43.608;1.236;2024-01-11T20:34:22;5.30;99.90
34768;DHT22;21755;43.608;1.236;2024-01-11T20:36:53;5.30;99.90
34768;DHT22;21755;43.608;1.236;2024-01-11T20:39:20;5.30;99.90
34768;DHT22;21755;43.608;1.236;2024-01-11T20:41:46;5.30;99.90
34768;DHT22;21755;43.608;1.236;2024-01-11T20:44:12;5.30;99.90
34768;DHT22;21755;43.608;1.236;2024-01-11T20:46:41;5.30;99.90
34768;DHT22;21755;43.608;1.236;2024-01-11T20:49:06;5.30;99.90
34768;DHT22;21755;43.608;1.236;2024-01-11T20:51:33;5.30;99.90
34768;DHT22;21755;43.608;1.236;2024-01-11T20:54:00;5.30;99.90
34768;DHT22;21755;43.608;1.236;2024-01-11T20:56:28;5.30;99.90
34768;DHT22;21755;43.608;1.236;2024-01-11T20:58:55;5.30;99.90
34768;DHT22;21755;43.608;1.236;2024-01-11T21:01:21;5.30;99.90
34768;DHT22;21755;43.608;1.236;2024-01-11T21:03:47;5.30;99.90
34768;DHT22;21755;43.608;1.236;2024-01-11T21:06:15;5.20;99.90
34768;DHT22;21755;43.608;1.236;2024-01-11T21:08:41;5.20;99.90
34768;DHT22;21755;43.608;1.236;2024-01-11T21:11:07;5.20;99.90
34768;DHT22;21755;43.608;1.236;2024-01-11T21:13:33;5.20;99.90
34768;DHT22;21755;43.608;1.236;2024-01-11T21:16:00;5.20;99.90
34768;DHT22;21755;43.608;1.236;2024-01-11T21:18:26;5.20;99.90
34768;DHT22;21755;43.608;1.236;2024-01-11T21:20:52;5.20;99.90
34768;DHT22;21755;43.608;1.236;2024-01-11T21:23:18;5.20;99.90
34768;DHT22;21755;43.608;1.236;2024-01-11T21:25:44;5.20;99.90
34768;DHT22;21755;43.608;1.236;2024-01-11T21:28:10;5.20;99.90
34768;DHT22;21755;43.608;1.236;2024-01-11T21:30:40;5.20;99.90
34768;DHT22;21755;43.608;1.236;2024-01-11T21:33:06;5.20;99.90
34768;DHT22;21755;43.608;1.236;2024-01-11T21:35:32;5.20;99.90
34768;DHT22;21755;43.608;1.236;2024-01-11T21:37:58;5.20;99.90
34768;DHT22;21755;43.608;1.236;2024-01-11T21:40:25;5.20;99.90
34768;DHT22;21755;43.608;1.236;2024-01-11T21:42:52;5.20;99.90
34768;DHT22;21755;43.608;1.236;2024-01-11T21:45:18;5.20;99.90
34768;DHT22;21755;43.608;1.236;2024-01-11T21:47:45;5.10;99.90
34768;DHT22;21755;43.608;1.236;2024-01-11T21:50:11;5.10;99.90
34768;DHT22;21755;43.608;1.236;2024-01-11T21:52:36;5.10;99.90
34768;DHT22;21755;43.608;1.236;2024-01-11T21:55:06;5.10;99.90
34768;DHT22;21755;43.608;1.236;2024-01-11T21:57:34;5.10;99.90
34768;DHT22;21755;43.608;1.236;2024-01-11T22:00:00;5.10;99.90
34768;DHT22;21755;43.608;1.236;2024-01-11T22:02:27;5.10;99.90